Time;durP1;ratioP1;P1;durP2;ratioP2;P2;SDS_P1;SDS_P2;PMS_P1;PMS_P2;Temp;Humidity;BMP_temperature;BMP_pressure;BME280_temperature;BME280_humidity;BME280_pressure;Samples;Min_cycle;Max_cycle;Signal;HPM_P1;HPM_P2
2023/01/23 00:01:55;;;;;;;6.72;4.82;;;;;;;9.19;70.50;95022.75;4145210;28;20061;-64
2023/01/23 00:03:57;;;;;;;6.25;4.05;;;;;;;9.13;70.77;95013.69;4135852;28;20042;-63
2023/01/23 00:06:01;;;;;;;9.32;4.88;;;;;;;9.17;70.47;95024.69;4146069;28;20084;-64
2023/01/23 00:08:03;;;;;;;6.88;4.18;;;;;;;9.18;69.57;95028.94;4129175;28;20050;-64
2023/01/23 00:10:05;;;;;;;8.05;5.15;;;;;;;9.23;70.04;95039.81;4137280;28;20480;-63
2023/01/23 00:12:07;;;;;;;5.63;3.72;;;;;;;9.27;70.47;95035.94;4136485;28;20061;-63
2023/01/23 00:14:09;;;;;;;6.78;4.63;;;;;;;9.31;69.87;95033.84;4137412;28;20058;-64
2023/01/23 00:16:14;;;;;;;11.18;4.90;;;;;;;9.32;69.64;95041.56;4145949;28;20054;-63
2023/01/23 00:18:16;;;;;;;7.40;4.38;;;;;;;9.32;69.19;95031.09;4128477;28;20161;-63
2023/01/23 00:20:18;;;;;;;8.07;4.30;;;;;;;9.29;69.97;95041.84;4128412;28;20050;-61
2023/01/23 00:22:20;;;;;;;7.32;4.53;;;;;;;9.33;69.81;95037.13;4145942;28;20058;-61
2023/01/23 00:24:21;;;;;;;6.50;4.45;;;;;;;9.37;69.66;95030.66;4141285;28;20472;-62
2023/01/23 00:26:26;;;;;;;7.78;5.15;;;;;;;9.41;69.81;95035.44;4142120;28;20104;-60
2023/01/23 00:28:28;;;;;;;;;;;;;;;9.44;70.21;95044.78;4143475;28;20124;-62
2023/01/23 00:30:30;;;;;;;6.72;4.93;;;;;;;9.47;69.62;95035.88;4143854;28;19929;-61
2023/01/23 00:32:32;;;;;;;8.18;6.75;;;;;;;9.37;70.05;95035.88;4145799;28;20149;-62
2023/01/23 00:34:33;;;;;;;7.65;5.43;;;;;;;9.32;70.24;95043.34;4145879;28;20046;-60
2023/01/23 00:36:38;;;;;;;7.28;5.35;;;;;;;9.34;69.51;95047.47;4145980;28;20507;-60
2023/01/23 00:38:40;;;;;;;8.57;5.38;;;;;;;9.39;70.24;95050.47;4132483;28;20057;-61
2023/01/23 00:40:42;;;;;;;9.13;5.50;;;;;;;9.38;69.62;95055.84;4145645;28;20046;-60
2023/01/23 00:42:43;;;;;;;7.45;5.00;;;;;;;9.32;70.01;95046.78;4143942;28;20057;-62
2023/01/23 00:44:45;;;;;;;6.35;5.32;;;;;;;9.34;70.56;95047.47;4138922;28;20081;-60
2023/01/23 00:46:47;;;;;;;6.78;5.40;;;;;;;9.30;70.09;95061.78;4130022;28;20046;-61
2023/01/23 00:48:49;;;;;;;8.20;5.75;;;;;;;9.32;70.45;95062.47;4129936;28;20085;-63
2023/01/23 00:50:51;;;;;;;7.90;5.60;;;;;;;9.35;70.28;95064.78;4129714;28;20130;-62
2023/01/23 00:52:53;;;;;;;7.45;5.13;;;;;;;9.42;70.32;95055.41;4131695;28;20440;-61
2023/01/23 00:54:54;;;;;;;7.05;5.80;;;;;;;9.48;70.40;95050.56;4145045;28;20099;-61
2023/01/23 00:56:56;;;;;;;6.90;5.00;;;;;;;9.38;70.44;95056.66;4136611;28;20055;-60
2023/01/23 00:58:58;;;;;;;6.57;4.85;;;;;;;9.38;70.29;95048.81;4146118;28;20050;-60
2023/01/23 01:01:00;;;;;;;8.60;4.80;;;;;;;9.36;69.44;95048.16;4148996;28;20104;-61
2023/01/23 01:03:01;;;;;;;7.07;5.03;;;;;;;9.40;69.33;95051.31;4143445;28;20531;-59
2023/01/23 01:05:03;;;;;;;8.05;5.00;;;;;;;9.41;69.40;95058.16;4141955;28;20439;-60
2023/01/23 01:07:05;;;;;;;7.15;4.97;;;;;;;9.33;69.84;95044.97;4145858;28;20074;-59
2023/01/23 01:09:07;;;;;;;10.60;5.40;;;;;;;9.35;69.51;95043.06;4135997;28;20057;-61
2023/01/23 01:11:08;;;;;;;6.05;4.82;;;;;;;9.35;69.94;95051.72;4143105;28;20070;-59
2023/01/23 01:13:10;;;;;;;7.15;4.80;;;;;;;9.36;69.75;95055.16;4142106;28;20085;-61
2023/01/23 01:15:13;;;;;;;5.95;4.15;;;;;;;9.35;70.24;95053.50;4148136;28;20053;-60
2023/01/23 01:17:14;;;;;;;6.78;4.60;;;;;;;9.38;70.14;95053.25;4132912;28;20188;-62
2023/01/23 01:19:17;;;;;;;7.40;4.70;;;;;;;9.25;70.20;95063.16;4139409;28;20050;-61
2023/01/23 01:21:19;;;;;;;9.45;4.82;;;;;;;9.28;69.96;95057.66;4138879;28;20061;-61
2023/01/23 01:23:21;;;;;;;6.30;4.10;;;;;;;9.19;69.79;95054.94;4148907;28;20140;-61
2023/01/23 01:25:23;;;;;;;8.43;4.30;;;;;;;9.19;69.61;95056.72;4147906;28;20050;-61
2023/01/23 01:27:25;;;;;;;8.07;4.13;;;;;;;9.19;70.06;95064.56;4143458;28;20042;-61
2023/01/23 01:29:26;;;;;;;5.60;3.22;;;;;;;9.13;70.46;95070.38;4123797;28;20583;-61
2023/01/23 01:31:28;;;;;;;5.45;3.15;;;;;;;9.10;70.12;95070.63;4131032;28;20086;-63
2023/01/23 01:33:30;;;;;;;6.63;3.90;;;;;;;9.13;69.77;95081.63;4133708;28;20050;-61
2023/01/23 01:35:32;;;;;;;5.53;3.72;;;;;;;9.19;70.42;95080.25;4142511;28;20058;-63
2023/01/23 01:37:35;;;;;;;8.85;3.88;;;;;;;9.25;70.24;95086.69;4141595;28;20054;-60
2023/01/23 01:39:36;;;;;;;12.73;7.78;;;;;;;9.23;70.47;95087.66;4135421;28;20050;-61
2023/01/23 01:41:38;;;;;;;7.25;4.40;;;;;;;9.21;70.46;95079.16;4131751;28;20467;-61
2023/01/23 01:43:40;;;;;;;8.57;3.30;;;;;;;9.23;69.99;95086.84;4137198;28;20124;-61
2023/01/23 01:46:04;;;;;;;5.78;3.60;;;;;;;9.12;70.44;95080.00;4148757;28;20553;-61
2023/01/23 01:48:06;;;;;;;4.50;3.38;;;;;;;9.11;70.20;95077.53;4148848;28;20093;-58
2023/01/23 01:50:10;;;;;;;5.53;3.40;;;;;;;9.14;70.40;95077.22;4147885;28;20084;-59
2023/01/23 01:52:13;;;;;;;5.70;3.80;;;;;;;9.16;70.29;95070.91;4131446;28;20452;-60
2023/01/23 01:54:32;;;;;;;5.20;3.25;;;;;;;9.21;70.48;95073.09;4130145;28;20409;-61
2023/01/23 01:56:43;;;;;;;8.60;3.83;;;;;;;9.20;70.24;95074.88;4148751;28;20077;-61
2023/01/23 01:58:46;;;;;;;6.88;3.70;;;;;;;9.28;70.90;95073.34;4147670;28;20061;-61
2023/01/23 02:00:48;;;;;;;9.75;4.50;;;;;;;9.32;70.14;95072.09;4147969;28;20113;-60
2023/01/23 02:02:52;;;;;;;4.90;3.35;;;;;;;9.36;70.11;95078.69;4148265;28;20520;-62
2023/01/23 02:05:01;;;;;;;6.35;3.80;;;;;;;9.38;70.09;95087.22;4129691;28;20104;-59
2023/01/23 02:07:07;;;;;;;6.22;3.60;;;;;;;9.37;70.36;95085.56;4147214;28;20053;-60
2023/01/23 02:09:25;;;;;;;5.25;3.75;;;;;;;9.31;70.54;95088.75;4133155;28;20049;-59
2023/01/23 02:11:27;;;;;;;6.32;3.80;;;;;;;9.34;70.31;95088.47;4148354;28;20495;-60
2023/01/23 02:13:34;;;;;;;7.28;3.88;;;;;;;9.31;70.74;95086.94;4147258;28;20045;-61
2023/01/23 02:15:37;;;;;;;5.75;3.67;;;;;;;9.32;70.88;95086.00;4147413;28;20065;-61
2023/01/23 02:17:38;;;;;;;6.18;3.95;;;;;;;9.37;71.45;95088.19;4143863;28;20408;-62
2023/01/23 02:19:58;;;;;;;5.65;4.03;;;;;;;9.29;71.76;95091.53;4139453;28;20593;-60
2023/01/23 02:22:12;;;;;;;8.52;4.32;;;;;;;9.28;71.59;95083.81;4130258;28;20105;-64
2023/01/23 02:24:36;;;;;;;7.75;3.50;;;;;;;9.23;72.46;95087.66;4129897;28;20042;-61
2023/01/23 02:26:40;;;;;;;5.95;3.53;;;;;;;9.21;72.07;95084.38;4130257;28;20061;-60
2023/01/23 02:28:44;;;;;;;5.13;3.55;;;;;;;9.14;72.15;95088.53;4138482;28;20453;-61
2023/01/23 02:30:46;;;;;;;7.38;3.80;;;;;;;9.11;73.28;95085.34;4130448;28;20132;-62
2023/01/23 02:32:47;;;;;;;5.90;3.45;;;;;;;9.08;73.31;95085.63;4147713;28;20120;-61
2023/01/23 02:34:51;;;;;;;5.63;3.67;;;;;;;9.04;73.11;95085.09;4146789;28;20208;-61
2023/01/23 02:36:53;;;;;;;7.63;3.50;;;;;;;8.92;72.94;95084.41;4116644;28;20493;-64
2023/01/23 02:39:08;;;;;;;5.95;3.10;;;;;;;8.92;73.45;95094.84;4141732;28;20057;-64
2023/01/23 02:41:11;;;;;;;7.28;3.85;;;;;;;8.91;73.85;95085.38;4133021;28;20054;-63
2023/01/23 02:43:15;;;;;;;6.30;3.75;;;;;;;8.92;74.00;95099.28;4129428;28;20089;-64
2023/01/23 02:45:17;;;;;;;5.65;3.72;;;;;;;8.84;74.47;95094.75;4141796;28;20412;-64
2023/01/23 02:47:18;;;;;;;8.88;4.07;;;;;;;8.82;74.02;95089.66;4124289;28;20110;-63
2023/01/23 02:49:21;;;;;;;5.82;3.88;;;;;;;8.89;74.80;95089.09;4135450;28;20054;-62
2023/01/23 02:51:23;;;;;;;7.82;3.45;;;;;;;8.93;74.17;95096.53;4147148;28;20046;-61
2023/01/23 02:53:25;;;;;;;4.88;3.47;;;;;;;8.93;73.39;95091.31;4130025;28;20641;-62
2023/01/23 02:55:31;;;;;;;5.72;3.70;;;;;;;8.92;74.05;95088.81;4147096;28;20050;-66
2023/01/23 02:57:33;;;;;;;4.88;3.45;;;;;;;8.91;73.51;95081.97;4133664;28;20050;-64
2023/01/23 03:01:56;;;;;;;5.43;4.18;;;;;;;9.00;73.70;95081.09;4142276;28;20719;-63
2023/01/23 03:04:02;;;;;;;5.00;3.60;;;;;;;9.00;73.56;95089.75;4129540;28;20608;-62
2023/01/23 03:06:04;;;;;;;5.60;3.63;;;;;;;9.02;73.49;95093.06;4132459;28;20050;-64
2023/01/23 03:08:06;;;;;;;6.68;3.60;;;;;;;8.96;73.73;95091.00;4147131;28;20050;-64
2023/01/23 03:10:09;;;;;;;5.32;3.05;;;;;;;8.94;72.85;95090.31;4146903;28;20080;-64
2023/01/23 03:12:11;;;;;;;6.45;3.40;;;;;;;8.89;73.75;95091.72;4129101;28;20050;-64
2023/01/23 03:14:15;;;;;;;4.80;3.50;;;;;;;8.84;73.67;95092.13;4140978;28;20038;-62
2023/01/23 03:16:17;;;;;;;7.28;3.83;;;;;;;8.84;73.73;95094.75;4131700;28;20142;-62
2023/01/23 03:18:19;;;;;;;4.00;3.03;;;;;;;8.79;74.23;95102.16;4141066;28;20046;-63
2023/01/23 03:20:23;;;;;;;4.05;2.90;;;;;;;8.74;74.61;95096.53;4146744;28;20549;-64
2023/01/23 03:22:25;;;;;;;6.50;3.47;;;;;;;8.69;74.63;95098.72;4147087;28;20049;-64
2023/01/23 03:24:27;;;;;;;4.97;3.30;;;;;;;8.69;74.27;95093.50;4146590;28;20042;-63
2023/01/23 03:26:28;;;;;;;6.28;3.55;;;;;;;8.66;73.91;95093.78;4136513;28;20053;-65
2023/01/23 03:31:04;;;;;;;4.45;3.08;;;;;;;8.69;74.87;95093.50;4122282;28;20519;-64
2023/01/23 03:33:06;;;;;;;5.25;3.17;;;;;;;8.72;74.66;95093.25;4145586;28;20531;-64
2023/01/23 03:35:09;;;;;;;5.47;3.42;;;;;;;8.73;73.83;95087.03;4142875;28;20423;-63
2023/01/23 03:37:12;;;;;;;7.68;4.78;;;;;;;8.77;74.16;95084.00;4146718;28;20046;-63
2023/01/23 03:41:33;;;;;;;6.15;3.40;;;;;;;8.75;74.23;95095.56;4143062;28;20741;-64
2023/01/23 03:43:35;;;;;;;4.75;2.97;;;;;;;8.78;73.28;95090.09;4144358;28;20050;-64
2023/01/23 03:45:37;;;;;;;6.97;3.67;;;;;;;8.83;74.23;95090.47;4145167;28;20192;-64
2023/01/23 03:47:38;;;;;;;8.13;3.55;;;;;;;8.87;72.85;95091.84;4144801;28;20054;-62
2023/01/23 03:49:40;;;;;;;4.80;3.15;;;;;;;8.92;73.08;95094.84;4146577;28;20049;-63
2023/01/23 03:51:42;;;;;;;5.70;3.75;;;;;;;8.92;73.34;95094.03;4144145;28;20077;-63
2023/01/23 03:53:44;;;;;;;5.15;3.33;;;;;;;8.91;72.93;95101.06;4144970;28;20084;-62
2023/01/23 03:55:46;;;;;;;5.38;3.65;;;;;;;8.95;73.72;95099.00;4146436;28;20465;-63
2023/01/23 03:57:47;;;;;;;8.57;3.30;;;;;;;9.00;72.67;95099.41;4128168;28;20212;-64
2023/01/23 03:59:49;;;;;;;6.85;3.28;;;;;;;8.99;72.69;95100.34;4144111;28;20046;-64
2023/01/23 04:01:51;;;;;;;5.50;3.35;;;;;;;9.01;72.73;95094.03;4144509;28;20057;-63
2023/01/23 04:03:52;;;;;;;4.70;3.38;;;;;;;8.98;72.68;95099.53;4143587;28;20050;-63
2023/01/23 04:05:56;;;;;;;5.43;3.17;;;;;;;8.96;72.63;95100.66;4143147;28;20152;-62
2023/01/23 04:07:58;;;;;;;4.70;3.10;;;;;;;8.77;73.63;95102.28;4135540;28;20068;-65
2023/01/23 04:09:59;;;;;;;6.00;3.42;;;;;;;8.79;73.12;95110.81;4143153;28;20053;-60
2023/01/23 04:12:01;;;;;;;5.68;3.38;;;;;;;8.76;73.41;95103.28;4143891;28;20058;-60
2023/01/23 04:14:02;;;;;;;7.50;4.05;;;;;;;8.80;73.76;95098.59;4127657;28;20050;-60
2023/01/23 04:16:05;;;;;;;5.05;3.50;;;;;;;8.78;73.63;95103.13;4128955;28;20111;-60
2023/01/23 04:18:07;;;;;;;6.20;4.22;;;;;;;8.77;74.06;95104.09;4121085;28;20046;-59
2023/01/23 04:20:10;;;;;;;6.30;3.97;;;;;;;8.78;73.77;95108.38;4130660;28;20050;-62
2023/01/23 04:22:12;;;;;;;5.45;3.60;;;;;;;8.73;73.52;95102.72;4131511;28;20089;-62
2023/01/23 04:24:14;;;;;;;6.80;4.47;;;;;;;8.69;73.79;95110.03;4140622;28;20042;-61
2023/01/23 04:26:16;;;;;;;8.20;4.78;;;;;;;8.65;73.85;95107.78;4121426;28;20107;-60
2023/01/23 04:28:18;;;;;;;6.35;3.78;;;;;;;8.56;73.92;95109.44;4128366;28;20054;-61
2023/01/23 04:30:19;;;;;;;7.28;3.80;;;;;;;8.48;74.04;95112.75;4144967;28;20479;-61
2023/01/23 04:32:21;;;;;;;6.07;3.65;;;;;;;8.43;74.37;95114.09;4145541;28;20053;-63
2023/01/23 04:34:23;;;;;;;6.70;4.25;;;;;;;8.45;74.45;95105.16;4143313;28;20081;-63
2023/01/23 04:36:25;;;;;;;7.38;3.83;;;;;;;8.44;74.31;95105.31;4132924;28;20078;-60
2023/01/23 04:38:27;;;;;;;4.78;3.67;;;;;;;8.49;74.64;95105.72;4142390;28;20081;-61
2023/01/23 04:40:29;;;;;;;5.70;3.42;;;;;;;8.41;74.55;95106.44;4136264;28;20053;-62
2023/01/23 04:42:31;;;;;;;4.40;3.10;;;;;;;8.33;74.08;95107.06;4135960;28;20487;-61
2023/01/23 04:44:32;;;;;;;4.38;2.95;;;;;;;8.45;74.54;95106.97;4143159;28;20046;-61
2023/01/23 04:46:34;;;;;;;5.53;3.55;;;;;;;8.54;73.74;95106.97;4142142;28;20081;-59
2023/01/23 04:48:36;;;;;;;5.05;3.38;;;;;;;8.59;73.22;95112.59;4137157;28;20050;-63
2023/01/23 04:50:38;;;;;;;4.43;3.00;;;;;;;8.54;73.50;95112.22;4135080;28;20137;-59
2023/01/23 04:52:39;;;;;;;4.03;2.80;;;;;;;8.38;73.55;95112.69;4126498;28;20523;-60
2023/01/23 04:54:41;;;;;;;5.45;3.33;;;;;;;8.40;73.28;95113.41;4144849;28;20045;-60
2023/01/23 04:59:04;;;;;;;4.80;3.13;;;;;;;8.40;73.54;95112.56;4142280;28;20065;-60
2023/01/23 05:01:06;;;;;;;4.40;3.00;;;;;;;8.45;73.83;95113.00;4134018;28;20046;-61
2023/01/23 05:03:08;;;;;;;4.25;2.80;;;;;;;8.46;73.29;95113.84;4145755;28;20128;-61
2023/01/23 05:05:11;;;;;;;6.00;3.17;;;;;;;8.41;73.42;95116.88;4145229;28;20046;-60
2023/01/23 05:07:13;;;;;;;4.10;2.72;;;;;;;8.33;73.75;95107.06;4140527;28;20082;-62
2023/01/23 05:09:14;;;;;;;6.45;3.13;;;;;;;8.23;74.28;95127.09;4140012;28;20042;-58
2023/01/23 05:11:16;;;;;;;4.68;2.83;;;;;;;8.17;74.88;95125.88;4129738;28;20558;-59
2023/01/23 05:13:18;;;;;;;6.18;3.67;;;;;;;8.23;74.95;95121.06;4129177;28;20046;-60
2023/01/23 05:15:20;;;;;;;10.15;3.90;;;;;;;8.24;74.59;95127.91;4129347;28;20058;-62
2023/01/23 05:17:21;;;;;;;11.73;3.80;;;;;;;8.30;75.34;95127.38;4118581;28;20057;-61
2023/01/23 05:19:23;;;;;;;6.25;3.70;;;;;;;8.30;74.99;95130.00;4136651;28;20081;-61
2023/01/23 05:21:25;;;;;;;7.10;3.90;;;;;;;8.32;74.94;95136.72;4141481;28;20060;-61
2023/01/23 05:23:26;;;;;;;6.47;4.07;;;;;;;8.35;74.92;95139.06;4129460;28;20469;-62
2023/01/23 05:25:28;;;;;;;6.00;3.50;;;;;;;8.38;74.65;95143.19;4129275;28;20150;-62
2023/01/23 05:27:30;;;;;;;4.95;3.53;;;;;;;8.42;74.22;95149.84;4129660;28;20493;-62
2023/01/23 05:29:31;;;;;;;7.22;3.92;;;;;;;8.47;74.63;95149.44;4142496;28;20060;-62
2023/01/23 05:31:33;;;;;;;6.53;3.53;;;;;;;8.43;74.22;95159.31;4145348;28;20515;-61
2023/01/23 05:33:35;;;;;;;5.97;3.45;;;;;;;8.38;74.07;95159.69;4143598;28;20655;-62
2023/01/23 05:35:39;;;;;;;5.60;3.35;;;;;;;8.35;74.10;95167.78;4144578;28;20046;-60
2023/01/23 05:37:41;;;;;;;5.90;3.28;;;;;;;8.38;74.56;95175.34;4145787;28;20057;-61
2023/01/23 05:39:43;;;;;;;6.93;4.53;;;;;;;8.37;74.25;95167.66;4144658;28;20065;-62
2023/01/23 05:41:45;;;;;;;5.75;3.88;;;;;;;8.36;74.14;95181.66;4144804;28;20575;-62
2023/01/23 05:43:48;;;;;;;4.85;3.60;;;;;;;8.40;74.21;95175.22;4146508;28;20049;-61
2023/01/23 05:45:50;;;;;;;4.72;3.03;;;;;;;8.39;73.87;95176.19;4148681;28;20081;-59
2023/01/23 05:47:54;;;;;;;4.43;3.15;;;;;;;8.41;73.67;95171.69;4148353;28;20050;-60
2023/01/23 05:49:56;;;;;;;5.45;3.38;;;;;;;8.45;73.71;95180.06;4147971;28;20046;-61
2023/01/23 05:51:58;;;;;;;6.57;3.10;;;;;;;8.50;73.48;95178.72;4148327;28;20108;-61
2023/01/23 05:54:01;;;;;;;4.72;3.25;;;;;;;8.47;72.75;95168.53;4148334;28;20104;-60
2023/01/23 05:56:07;;;;;;;5.22;3.28;;;;;;;8.53;73.42;95175.81;4147933;28;20050;-60
2023/01/23 05:58:08;;;;;;;7.63;3.88;;;;;;;8.52;73.49;95173.38;4147769;28;20073;-59
2023/01/23 06:00:12;;;;;;;5.45;2.83;;;;;;;8.57;72.61;95179.00;4148120;28;20049;-60
2023/01/23 06:02:13;;;;;;;4.13;2.88;;;;;;;8.57;72.84;95181.63;4147720;28;20494;-63
2023/01/23 06:04:15;;;;;;;4.40;2.83;;;;;;;8.59;72.80;95177.91;4148145;28;20046;-58
2023/01/23 06:06:17;;;;;;;4.18;2.72;;;;;;;8.67;72.86;95184.22;4145002;28;20041;-61
2023/01/23 06:08:18;;;;;;;6.75;3.33;;;;;;;8.69;72.31;95192.75;4143004;28;20133;-60
2023/01/23 06:10:20;;;;;;;4.57;2.85;;;;;;;8.69;72.27;95197.97;4147905;28;20065;-61
2023/01/23 06:12:22;;;;;;;5.90;3.30;;;;;;;8.63;71.83;95201.16;4147427;28;20136;-62
2023/01/23 06:14:24;;;;;;;4.25;2.80;;;;;;;8.58;71.45;95207.59;4130683;28;20089;-60
2023/01/23 06:16:26;;;;;;;8.73;2.90;;;;;;;8.49;71.73;95205.78;4147868;28;20057;-61
2023/01/23 06:18:27;;;;;;;4.47;3.20;;;;;;;8.59;71.57;95211.03;4148067;28;20089;-64
2023/01/23 06:20:29;;;;;;;6.60;3.30;;;;;;;8.59;71.85;95204.00;4147293;28;20137;-61
2023/01/23 06:22:31;;;;;;;5.78;2.92;;;;;;;8.66;71.36;95200.88;4148010;28;20133;-62
2023/01/23 06:24:33;;;;;;;5.25;3.13;;;;;;;8.75;71.58;95205.28;4139867;28;20053;-64
2023/01/23 06:26:34;;;;;;;4.18;2.80;;;;;;;8.63;71.38;95209.00;4143151;28;20400;-61
2023/01/23 06:28:36;;;;;;;4.68;2.65;;;;;;;8.64;71.51;95208.00;4146906;28;20103;-63
2023/01/23 06:30:38;;;;;;;3.67;2.63;;;;;;;8.68;70.80;95205.00;4147694;28;20050;-61
2023/01/23 06:32:40;;;;;;;3.83;2.42;;;;;;;8.65;70.41;95209.66;4147868;28;20065;-63
2023/01/23 06:34:41;;;;;;;4.05;2.83;;;;;;;8.68;71.32;95210.22;4144872;28;20058;-61
2023/01/23 06:36:45;;;;;;;6.82;2.80;;;;;;;8.64;71.28;95200.19;4129325;28;20066;-62
2023/01/23 06:38:46;;;;;;;3.95;2.80;;;;;;;8.59;71.23;95206.63;4147825;28;20328;-62
2023/01/23 06:40:48;;;;;;;4.55;2.83;;;;;;;8.57;71.34;95197.28;4147738;28;20137;-61
2023/01/23 06:42:53;;;;;;;4.65;3.20;;;;;;;8.50;71.78;95202.22;4147129;28;20060;-62
2023/01/23 06:44:55;;;;;;;5.35;3.15;;;;;;;8.52;71.72;95207.31;4147267;28;20041;-61
2023/01/23 06:46:56;;;;;;;5.10;2.72;;;;;;;8.41;71.61;95197.81;4147778;28;20057;-60
2023/01/23 06:48:58;;;;;;;5.38;3.10;;;;;;;8.28;72.56;95211.06;4147663;28;20049;-60
2023/01/23 06:51:01;;;;;;;4.32;3.22;;;;;;;8.29;72.22;95219.72;4146882;28;20133;-63
2023/01/23 06:53:04;;;;;;;6.68;3.40;;;;;;;8.20;72.05;95209.09;4147234;28;20045;-60
2023/01/23 06:55:06;;;;;;;6.30;3.57;;;;;;;8.19;73.05;95212.69;4146497;28;20049;-61
2023/01/23 06:57:07;;;;;;;9.10;3.83;;;;;;;8.22;73.18;95222.03;4129327;28;20314;-62
2023/01/23 06:59:09;;;;;;;6.10;4.13;;;;;;;8.34;73.06;95230.56;4144318;28;20065;-63
2023/01/23 07:01:14;;;;;;;6.85;3.60;;;;;;;8.41;72.39;95221.31;4132115;28;20073;-61
2023/01/23 07:03:16;;;;;;;6.63;4.15;;;;;;;8.45;72.67;95230.50;4140166;28;20617;-59
2023/01/23 07:05:19;;;;;;;10.98;4.38;;;;;;;8.45;73.08;95242.72;4135455;28;20046;-61
2023/01/23 07:07:20;;;;;;;6.05;4.13;;;;;;;8.43;72.93;95248.06;4142839;28;20049;-57
2023/01/23 07:09:22;;;;;;;9.07;4.93;;;;;;;8.45;73.46;95254.00;4141029;28;20077;-60
2023/01/23 07:11:24;;;;;;;8.65;5.40;;;;;;;8.37;73.80;95249.41;4141424;28;20127;-62
2023/01/23 07:13:26;;;;;;;10.25;5.72;;;;;;;8.34;73.68;95256.69;4133597;28;20381;-62
2023/01/23 07:15:27;;;;;;;10.18;5.32;;;;;;;8.24;73.72;95254.03;4134311;28;20249;-63
2023/01/23 07:17:29;;;;;;;7.90;5.70;;;;;;;8.23;73.58;95254.16;4143373;28;20053;-61
2023/01/23 07:19:31;;;;;;;7.22;5.07;;;;;;;8.06;74.68;95253.81;4147373;28;20058;-61
2023/01/23 07:21:33;;;;;;;9.93;6.45;;;;;;;8.08;75.01;95251.88;4146913;28;20523;-63
2023/01/23 07:23:35;;;;;;;7.95;5.57;;;;;;;8.06;74.84;95256.41;4143657;28;20047;-61
2023/01/23 07:25:36;;;;;;;7.80;5.43;;;;;;;8.06;74.86;95252.97;4147055;28;20056;-67
2023/01/23 07:27:38;;;;;;;8.15;5.72;;;;;;;8.11;74.59;95256.88;4129050;28;20142;-61
2023/01/23 07:29:41;;;;;;;8.82;5.57;;;;;;;8.11;74.63;95272.53;4142035;28;20050;-65
2023/01/23 07:31:43;;;;;;;9.47;6.57;;;;;;;8.07;75.02;95260.69;4144928;28;20057;-65
2023/01/23 07:33:45;;;;;;;12.95;6.82;;;;;;;7.92;75.90;95273.25;4145886;28;20049;-62
2023/01/23 07:35:46;;;;;;;13.10;7.88;;;;;;;7.86;76.23;95278.97;4139022;28;20073;-63
2023/01/23 07:37:48;;;;;;;15.20;8.43;;;;;;;7.82;76.63;95276.75;4141785;28;20141;-64
2023/01/23 07:39:50;;;;;;;12.40;7.47;;;;;;;7.84;76.81;95283.47;4146138;28;20060;-61
2023/01/23 07:41:52;;;;;;;11.80;7.43;;;;;;;7.80;76.49;95280.28;4146698;28;20060;-63
2023/01/23 07:43:53;;;;;;;15.80;7.90;;;;;;;7.83;76.50;95279.25;4138275;28;20058;-60
2023/01/23 07:45:59;;;;;;;14.40;7.95;;;;;;;7.80;76.98;95282.91;4131196;28;20053;-63
2023/01/23 07:48:00;;;;;;;12.85;7.70;;;;;;;7.78;76.50;95277.00;4133712;28;20061;-63
2023/01/23 07:50:02;;;;;;;14.70;8.48;;;;;;;7.86;76.60;95278.16;4146513;28;20489;-63
2023/01/23 07:52:04;;;;;;;14.00;8.73;;;;;;;7.91;76.67;95271.56;4137883;28;20487;-61
2023/01/23 07:54:06;;;;;;;13.07;8.25;;;;;;;8.02;76.69;95281.09;4130619;28;20523;-61
2023/01/23 07:56:08;;;;;;;14.57;8.63;;;;;;;7.97;76.79;95285.91;4133594;28;20037;-62
2023/01/23 07:58:09;;;;;;;14.00;7.65;;;;;;;7.94;77.24;95287.00;4146017;28;20063;-64
2023/01/23 08:00:11;;;;;;;13.80;8.75;;;;;;;7.99;76.94;95287.41;4136605;28;20423;-62
2023/01/23 08:02:13;;;;;;;14.77;9.35;;;;;;;8.02;77.02;95294.16;4143399;28;20088;-62
2023/01/23 08:04:15;;;;;;;12.98;7.80;;;;;;;8.08;76.77;95293.63;4134435;28;20080;-61
2023/01/23 08:06:16;;;;;;;10.48;6.53;;;;;;;8.09;76.11;95290.09;4145735;28;20049;-60
2023/01/23 08:08:18;;;;;;;12.02;7.82;;;;;;;8.14;76.00;95289.69;4145162;28;20085;-65
2023/01/23 08:10:20;;;;;;;12.23;7.15;;;;;;;8.10;75.71;95290.91;4134357;28;20050;-63
2023/01/23 08:12:22;;;;;;;13.02;7.32;;;;;;;8.10;75.97;95293.53;4131404;28;20113;-64
2023/01/23 08:14:24;;;;;;;11.45;7.35;;;;;;;8.16;75.49;95290.41;4120729;28;20612;-65
2023/01/23 08:16:25;;;;;;;12.35;6.93;;;;;;;8.12;74.97;95302.88;4136926;28;20641;-63
2023/01/23 08:18:29;;;;;;;12.05;6.78;;;;;;;7.98;75.36;95291.00;4142199;28;20045;-63
2023/01/23 08:20:31;;;;;;;9.90;6.40;;;;;;;7.87;75.44;95296.28;4127962;28;20527;-64
2023/01/23 08:22:32;;;;;;;9.65;6.50;;;;;;;7.83;75.48;95305.31;4141910;28;20499;-63
2023/01/23 08:24:34;;;;;;;11.35;5.57;;;;;;;7.89;75.22;95314.41;4137399;28;20112;-63
2023/01/23 08:26:36;;;;;;;10.20;5.47;;;;;;;7.94;74.35;95322.69;4146428;28;20486;-63
2023/01/23 08:28:38;;;;;;;10.48;6.20;;;;;;;8.04;74.65;95320.94;4145814;28;20053;-64
2023/01/23 08:30:40;;;;;;;9.35;6.30;;;;;;;8.00;74.49;95316.94;4146125;28;20050;-64
2023/01/23 08:32:41;;;;;;;12.75;7.50;;;;;;;8.01;74.09;95316.00;4146615;28;20049;-62
2023/01/23 08:34:43;;;;;;;10.02;5.72;;;;;;;7.98;72.99;95331.91;4145951;28;20085;-65
2023/01/23 08:36:45;;;;;;;8.98;5.88;;;;;;;7.93;73.21;95328.84;4145613;28;20110;-63
2023/01/23 08:38:47;;;;;;;8.88;5.20;;;;;;;7.89;73.28;95325.66;4140948;28;20500;-65
2023/01/23 08:40:50;;;;;;;9.95;6.07;;;;;;;7.95;73.47;95324.34;4129928;28;20058;-62
2023/01/23 08:42:52;;;;;;;7.65;4.85;;;;;;;7.83;72.85;95326.19;4142594;28;20084;-64
2023/01/23 08:44:55;;;;;;;8.65;5.05;;;;;;;7.76;72.65;95328.44;4128104;28;20042;-65
2023/01/23 08:46:57;;;;;;;7.82;5.10;;;;;;;7.69;73.03;95319.47;4136493;28;20042;-63
2023/01/23 08:48:59;;;;;;;9.77;5.28;;;;;;;7.72;72.61;95324.47;4136960;28;20137;-62
2023/01/23 08:51:06;;;;;;;8.40;5.10;;;;;;;7.68;72.64;95325.66;4143319;28;20046;-65
2023/01/23 08:53:08;;;;;;;7.55;5.00;;;;;;;7.69;72.19;95327.31;4121837;28;20093;-63
2023/01/23 08:55:11;;;;;;;9.05;5.15;;;;;;;7.58;72.72;95320.38;4138071;28;20125;-63
2023/01/23 08:57:13;;;;;;;8.27;4.40;;;;;;;7.58;73.01;95328.19;4129761;28;20042;-65
2023/01/23 08:59:14;;;;;;;23.83;12.38;;;;;;;7.56;72.81;95331.88;4131413;28;20101;-64
2023/01/23 09:01:22;;;;;;;8.57;5.18;;;;;;;7.49;73.02;95334.16;4145855;28;20448;-65
2023/01/23 09:03:24;;;;;;;7.28;4.95;;;;;;;7.53;72.54;95337.34;4146132;28;20069;-64
2023/01/23 09:05:27;;;;;;;7.88;5.00;;;;;;;7.62;72.64;95326.16;4145476;28;20100;-62
2023/01/23 09:07:29;;;;;;;7.82;5.10;;;;;;;7.64;72.62;95334.69;4145964;28;20050;-64
2023/01/23 09:09:31;;;;;;;7.75;4.82;;;;;;;7.57;71.76;95333.53;4145362;28;20454;-64
2023/01/23 09:11:33;;;;;;;11.60;5.25;;;;;;;7.63;72.05;95332.19;4146162;28;20046;-64
2023/01/23 09:13:34;;;;;;;7.80;4.82;;;;;;;7.71;72.26;95335.84;4127766;28;20058;-63
2023/01/23 09:15:38;;;;;;;8.88;4.88;;;;;;;7.84;71.87;95334.84;4144751;28;20081;-62
2023/01/23 09:17:39;;;;;;;9.70;4.80;;;;;;;7.81;71.13;95320.28;4141355;28;20050;-63
2023/01/23 09:19:41;;;;;;;10.07;4.43;;;;;;;7.82;71.34;95331.53;4125215;28;20082;-63
2023/01/23 09:21:43;;;;;;;9.18;4.55;;;;;;;7.82;71.03;95340.16;4148734;28;20057;-64
2023/01/23 09:23:45;;;;;;;8.38;4.78;;;;;;;7.83;71.37;95333.16;4134656;28;20707;-64
2023/01/23 09:25:46;;;;;;;11.85;5.47;;;;;;;7.84;71.21;95342.66;4132827;28;20046;-64
2023/01/23 09:27:48;;;;;;;9.20;5.53;;;;;;;7.85;70.82;95344.31;4132547;28;20050;-64
2023/01/23 09:29:50;;;;;;;6.88;4.38;;;;;;;7.83;71.33;95341.84;4132916;28;20058;-65
2023/01/23 09:31:51;;;;;;;7.03;3.67;;;;;;;7.84;71.37;95342.66;4148113;28;20081;-65
2023/01/23 09:33:53;;;;;;;23.20;12.25;;;;;;;7.82;71.20;95331.53;4148138;28;20399;-65
2023/01/23 09:35:56;;;;;;;7.78;4.68;;;;;;;7.85;71.54;95324.28;4139960;28;20451;-65
2023/01/23 09:38:01;;;;;;;10.73;4.97;;;;;;;7.91;71.07;95331.56;4145142;28;20053;-67
2023/01/23 09:40:03;;;;;;;5.88;3.70;;;;;;;7.87;71.81;95332.81;4148252;28;20045;-67
2023/01/23 09:42:07;;;;;;;8.00;4.55;;;;;;;7.81;71.99;95322.88;4148496;28;20734;-66
2023/01/23 09:44:12;;;;;;;8.98;4.30;;;;;;;7.80;72.25;95324.63;4148353;28;20133;-66
2023/01/23 09:46:31;;;;;;;7.78;4.55;;;;;;;7.82;72.36;95324.53;4148762;28;20646;-65
2023/01/23 09:48:43;;;;;;;8.63;4.68;;;;;;;7.74;71.82;95319.94;4131401;28;20050;-64
2023/01/23 09:50:54;;;;;;;8.55;4.80;;;;;;;7.85;72.12;95326.88;4126623;28;20069;-60
2023/01/23 09:53:03;;;;;;;10.13;5.32;;;;;;;7.91;72.26;95318.53;4133019;28;20587;-62
2023/01/23 09:55:18;;;;;;;7.93;4.80;;;;;;;7.95;71.55;95330.38;4133176;28;20546;-61